ADDS TAF Board (Experimental) INFO Settings
IDs: Format: Expanded Condensed

KPIT - Pittsburgh Intl, PA, US

Issued at 0530 UTC 30 Sep 2016
Updated at 0638 UTC 30 Sep 2016
Time0551Z 30/07Z 30/08Z 30/09Z 30/10Z 30/11Z 30/12Z 30/13Z 30/14Z 30/15Z 30/16Z 30/17Z 30/18Z 30/19Z
Type OBS PRVL
  [TEMP]  
PRVL
  [TEMP]  
PRVL PRVL PRVL PRVL PRVL PRVL PRVL PRVL PRVL PRVL PRVL
VIS 8 3
  [1.5]  
3
  [1.5]  
3 3 6 6 6 6 6 6 >6 >6 >6
CIG 48 20
  [8]  
20
  [8]  
20 20 25 25 25 25 25 25 35 35 35
Cover OVC OVC
  [OVC]  
OVC
  [OVC]  
OVC OVC OVC OVC OVC OVC OVC OVC BKN BKN BKN
FltCat VFR MVFR
  [IFR]  
MVFR
  [IFR]  
MVFR MVFR MVFR MVFR MVFR MVFR MVFR MVFR VFR VFR VFR
WX -RA -SHRA
  [-RA BR]  
-SHRA
  [-RA BR]  
-SHRA -SHRA BR VCSH BR VCSH BR VCSH BR VCSH BR VCSH BR VCSH VCSH VCSH VCSH
WDir 90 80
[80]
80
[80]
80 80 80 80 80 80 80 80 100 100 100
WSpd 11 5
  [5]  
5
  [5]  
5 5 7 7 7 7 7 7 12 12 12
WGst -- --
  [--]  
--
  [--]  
-- -- -- -- -- -- -- -- 17 17 17
R10/28
XWnd 0 1 1 1 1 1 1 1 1 1 1 -2 -2 -2
XGst -- 0 0 -- -- -- -- -- -- -- -- -2 -2 -2
HWnd 11 5 5 5 5 7 7 7 7 7 7 12 12 12
HGst -- 0 0 -- -- -- -- -- -- -- -- 17 17 17
R14/32
XWnd 8 4 4 4 4 6 6 6 6 6 6 7 7 7
XGst -- 0 0 -- -- -- -- -- -- -- -- 10 10 10
HWnd 8 3 3 3 3 4 4 4 4 4 4 10 10 10
HGst -- 0 0 -- -- -- -- -- -- -- -- 14 14 14

Raw TAF
KPIT 300530Z 3006/0112 08005KT 3SM -SHRA OVC020
  TEMPO 3006/3009 1 1/2SM -RA BR BKN008 OVC015
  FM301100 08007KT 6SM BR VCSH OVC025
  FM301700 10012G17KT P6SM VCSH BKN035
  FM010400 09008KT P6SM VCSH BKN020


Raw METAR
KPIT 300551Z 09011KT 8SM -RA FEW007 BKN048 OVC065 14/14 A3015 RMK AO2 SLP217 P0022 60111 T01440144 10172 20144 58001
KPIT 300451Z 08012KT 5SM RA BR FEW005 BKN034 OVC070 14/14 A3015 RMK AO2 SLP215 P0021 T01440144 401940133
KPIT 300442Z 08008G16KT 4SM RA BR SCT005 BKN031 OVC070 14/14 A3015 RMK AO2 P0016 T01440144
KPIT 300430Z 10008G18KT 5SM -RA BR BKN005 BKN026 OVC070 14/14 A3016 RMK AO2 P0009 T01440144
KPIT 300351Z 08011KT 4SM -RA BR FEW008 SCT014 OVC028 14/14 A3016 RMK AO2 SLP220 P0021 T01440144
KPIT 300344Z 07011KT 5SM -RA BR SCT006 BKN013 OVC027 14/14 A3017 RMK AO2 P0021 T01440144

METAR Board
Radar Display
Forecast Discussion

TAF Board Legend

Potential Impact
Threat None Slight Moderate High
Visibility (sm) ≥5.1 5.1>X≥3 3>X≥1 <1
Ceiling (100 ft) ≥30.1 30.1>X≥10 10>X≥5 <5
Wind Speed (kt) <10 10≤X<20 20≤X<30 ≥30
Wind Gust (kt) <15 15≤X<25 25≤X<35 ≥35
Weather No Wx Reported VCTS,-TS,-FZRA,SN TS,FZRA +TS,+FZRA,+SN